Time;durP1;ratioP1;P1;durP2;ratioP2;P2;SDS_P1;SDS_P2;PMS_P1;PMS_P2;Temp;Humidity;BMP_temperature;BMP_pressure;BME280_temperature;BME280_humidity;BME280_pressure;Samples;Min_cycle;Max_cycle;Signal;HPM_P1;HPM_P2
2021/12/22 00:04:12;;;;;;;43.73;17.57;;;;;;;-4.34;78.20;101590.66;8596631;33;20526;-78
2021/12/22 00:09:16;;;;;;;33.67;17.23;;;;;;;-4.32;78.26;101594.16;8597286;33;20139;-78
2021/12/22 00:14:19;;;;;;;35.07;15.63;;;;;;;-4.34;78.21;101590.66;8591256;33;20701;-79
2021/12/22 00:26:30;;;;;;;35.53;15.10;;;;;;;-4.45;77.80;101602.03;8588318;33;20414;-78
2021/12/22 00:31:39;;;;;;;33.70;15.40;;;;;;;-4.50;77.41;101588.91;8593767;33;20488;-78
2021/12/22 00:36:43;;;;;;;29.87;14.70;;;;;;;-4.43;77.50;101587.19;8595113;33;20440;-78
2021/12/22 00:41:49;;;;;;;27.33;14.10;;;;;;;-4.42;77.36;101584.53;8565810;33;20445;-78
2021/12/22 00:46:52;;;;;;;30.27;13.87;;;;;;;-4.58;77.02;101588.03;8589559;33;20172;-78
2021/12/22 00:51:55;;;;;;;33.43;15.80;;;;;;;-4.66;77.08;101580.19;8590081;33;20519;-78
2021/12/22 00:57:04;;;;;;;30.27;14.00;;;;;;;-4.71;77.17;101578.44;8598598;33;20437;-78
2021/12/22 01:02:09;;;;;;;28.53;14.37;;;;;;;-4.78;76.75;101574.91;8608244;33;20293;-78
2021/12/22 01:07:13;;;;;;;28.53;14.07;;;;;;;-4.83;76.49;101585.38;8613332;33;20690;-79
2021/12/22 01:12:18;;;;;;;25.13;13.40;;;;;;;-4.70;76.56;101588.91;8612042;33;20495;-78
2021/12/22 01:17:21;;;;;;;30.83;13.20;;;;;;;-4.74;76.36;101592.41;8612458;33;20247;-79
2021/12/22 01:22:31;;;;;;;24.93;12.20;;;;;;;-4.83;76.49;101595.00;8614976;33;20645;-78
2021/12/22 01:27:40;;;;;;;25.10;12.40;;;;;;;-4.85;76.49;101597.63;8616513;33;20619;-79
2021/12/22 01:32:44;;;;;;;27.13;11.73;;;;;;;-4.89;76.21;101603.72;8616901;33;20519;-78
2021/12/22 01:37:47;;;;;;;26.73;11.47;;;;;;;-4.97;76.13;101606.31;8605572;33;20297;-78
2021/12/22 01:42:55;;;;;;;26.37;12.23;;;;;;;-5.11;76.27;101604.53;8608191;33;20151;-78
2021/12/22 01:53:40;;;;;;;31.17;13.33;;;;;;;-5.05;76.83;101601.94;8594217;33;20416;-79
2021/12/22 01:58:47;;;;;;;26.37;12.10;;;;;;;-5.04;76.62;101601.94;8596154;33;20465;-78
2021/12/22 02:03:53;;;;;;;25.67;12.23;;;;;;;-5.01;76.87;101594.09;8597426;33;20515;-78
2021/12/22 02:08:58;;;;;;;31.10;13.37;;;;;;;-4.95;76.86;101594.97;8569440;33;20648;-78
2021/12/22 02:14:05;;;;;;;27.43;13.40;;;;;;;-4.88;76.72;101597.63;8599406;33;20148;-79
2021/12/22 02:19:10;;;;;;;35.10;14.43;;;;;;;-4.83;77.00;101589.75;8597024;33;20159;-78
2021/12/22 02:24:15;;;;;;;27.43;12.87;;;;;;;-4.75;77.13;101594.13;8596694;33;21124;-78
2021/12/22 02:29:21;;;;;;;37.53;15.50;;;;;;;-4.77;76.71;101589.78;8594289;33;20255;-78
2021/12/22 02:34:24;;;;;;;30.97;12.27;;;;;;;-4.81;77.19;101593.25;8594525;33;20140;-78
2021/12/22 02:39:28;;;;;;;32.53;13.40;;;;;;;-4.82;77.40;101594.13;8568440;33;20492;-78
2021/12/22 02:44:31;;;;;;;32.43;14.60;;;;;;;-4.80;77.09;101589.75;8593688;33;20913;-78
2021/12/22 02:49:38;;;;;;;30.43;14.13;;;;;;;-4.81;77.67;101595.88;8568645;33;20914;-78
2021/12/22 02:54:48;;;;;;;34.87;14.83;;;;;;;-4.73;77.21;101586.28;8570883;33;20194;-78
2021/12/22 03:00:12;;;;;;;32.80;14.07;;;;;;;-4.79;76.92;101579.28;8597091;33;21143;-78
2021/12/22 03:05:17;;;;;;;28.40;13.23;;;;;;;-4.84;77.02;101582.75;8598208;33;20144;-78
2021/12/22 03:10:21;;;;;;;31.37;14.00;;;;;;;-4.86;76.67;101587.13;8602268;33;20458;-78
2021/12/22 03:15:24;;;;;;;29.50;12.57;;;;;;;-4.90;76.45;101596.75;8591329;33;20884;-78
2021/12/22 03:20:27;;;;;;;28.07;12.83;;;;;;;-4.92;76.68;101587.13;8570353;28;20993;-76
2021/12/22 03:25:32;;;;;;;30.37;13.67;;;;;;;-4.90;76.66;101593.25;8467563;33;20395;-76
2021/12/22 03:30:35;;;;;;;28.83;13.47;;;;;;;-4.99;76.39;101584.50;8495162;33;20450;-77
2021/12/22 03:35:39;;;;;;;28.23;13.67;;;;;;;-5.05;76.13;101594.94;8470507;34;20995;-76
2021/12/22 03:40:44;;;;;;;28.27;13.37;;;;;;;-5.10;76.61;101594.06;8468083;33;20149;-76
2021/12/22 03:45:47;;;;;;;25.40;12.77;;;;;;;-5.12;76.65;101581.84;8468363;34;20236;-76
2021/12/22 03:50:50;;;;;;;31.17;12.83;;;;;;;-5.15;76.56;101576.59;8467706;34;20142;-76
2021/12/22 03:55:54;;;;;;;30.80;13.77;;;;;;;-5.20;76.45;101568.72;8472468;34;20158;-76
2021/12/22 04:00:58;;;;;;;23.63;11.73;;;;;;;-5.23;76.52;101566.09;8469319;33;20518;-76
2021/12/22 04:06:02;;;;;;;25.97;12.20;;;;;;;-5.24;76.08;101573.06;8474130;34;20408;-76
2021/12/22 04:11:06;;;;;;;26.00;12.10;;;;;;;-5.31;76.40;101570.41;8497372;34;20193;-76
2021/12/22 04:16:09;;;;;;;26.87;12.97;;;;;;;-5.29;76.48;101569.56;8493805;34;20427;-76
2021/12/22 04:21:13;;;;;;;26.50;11.90;;;;;;;-5.34;76.45;101566.03;8469498;33;20138;-76
2021/12/22 04:26:18;;;;;;;25.43;11.97;;;;;;;-5.34;76.41;101573.03;8469897;34;20484;-76
2021/12/22 04:31:21;;;;;;;23.83;11.47;;;;;;;-5.36;76.37;101578.25;8466770;34;20387;-76
2021/12/22 04:36:24;;;;;;;30.30;11.93;;;;;;;-5.30;76.36;101572.16;8463903;33;20172;-77
2021/12/22 04:41:28;;;;;;;23.20;12.77;;;;;;;-5.32;76.37;101574.78;8463210;33;20185;-77
2021/12/22 04:46:31;;;;;;;25.47;11.47;;;;;;;-5.34;76.22;101573.91;8462546;34;21038;-76
2021/12/22 04:51:36;;;;;;;28.10;13.07;;;;;;;-5.37;76.66;101575.66;8461846;34;20406;-76
2021/12/22 04:56:41;;;;;;;27.00;12.03;;;;;;;-5.32;76.92;101569.56;8462896;34;20453;-76
2021/12/22 05:01:44;;;;;;;25.47;12.43;;;;;;;-5.31;77.06;101562.56;8468017;34;20142;-76
2021/12/22 05:06:47;;;;;;;33.80;13.20;;;;;;;-5.26;77.28;101569.56;8467330;34;20166;-76
2021/12/22 05:11:52;;;;;;;28.70;13.03;;;;;;;-5.23;77.39;101572.19;8464561;34;20477;-77
2021/12/22 05:17:00;;;;;;;30.70;13.60;;;;;;;-5.26;77.54;101563.47;8467510;33;20200;-76
2021/12/22 05:22:03;;;;;;;30.57;14.07;;;;;;;-5.23;77.69;101564.34;8466312;33;20244;-76
2021/12/22 05:27:08;;;;;;;27.60;12.83;;;;;;;-5.19;77.69;101560.84;8467056;34;20431;-76
2021/12/22 05:32:11;;;;;;;30.67;13.33;;;;;;;-5.21;77.69;101567.84;8467258;34;20196;-77
2021/12/22 05:37:14;;;;;;;29.20;13.70;;;;;;;-5.16;77.96;101573.06;8467636;34;20514;-77
2021/12/22 05:42:19;;;;;;;33.23;14.30;;;;;;;-5.13;77.64;101573.06;8467551;34;21005;-76
2021/12/22 05:47:22;;;;;;;29.90;12.60;;;;;;;-5.18;77.61;101574.84;8468055;34;20433;-77
2021/12/22 05:52:25;;;;;;;32.40;13.27;;;;;;;-5.24;77.77;101561.69;8461913;33;20416;-76
2021/12/22 05:57:30;;;;;;;32.77;14.87;;;;;;;-5.25;78.04;101560.81;8462590;34;21001;-76
2021/12/22 06:02:33;;;;;;;31.10;13.93;;;;;;;-5.25;77.99;101559.97;8460423;34;20432;-76
2021/12/22 06:07:37;;;;;;;32.83;13.77;;;;;;;-5.29;78.18;101553.84;8458589;34;20444;-77
2021/12/22 06:12:41;;;;;;;28.57;12.30;;;;;;;-5.36;77.73;101552.06;8460768;33;20277;-76
2021/12/22 06:17:46;;;;;;;23.10;10.90;;;;;;;-5.36;77.99;101559.91;8470016;33;20965;-76
2021/12/22 06:22:49;;;;;;;35.07;13.53;;;;;;;-5.32;77.95;101550.31;8464234;33;20220;-76
2021/12/22 06:27:53;;;;;;;30.23;12.77;;;;;;;-5.33;78.28;101545.97;8459129;33;20142;-76
2021/12/22 06:32:57;;;;;;;31.60;13.50;;;;;;;-5.32;78.47;101561.69;8457148;34;20433;-76
2021/12/22 06:38:00;;;;;;;32.67;14.93;;;;;;;-5.35;78.51;101553.78;8462545;33;20312;-76
2021/12/22 06:43:04;;;;;;;28.17;13.73;;;;;;;-5.29;78.31;101555.56;8464012;33;20673;-76
2021/12/22 06:48:07;;;;;;;36.13;15.23;;;;;;;-5.37;78.40;101552.94;8465820;34;21031;-76
2021/12/22 06:53:10;;;;;;;29.37;12.50;;;;;;;-5.40;78.71;101563.41;8463596;34;20528;-76
2021/12/22 06:58:15;;;;;;;36.60;14.70;;;;;;;-5.33;78.47;101562.53;8460473;34;20489;-76
2021/12/22 07:03:18;;;;;;;30.33;13.63;;;;;;;-5.34;78.25;101558.19;8462678;34;20189;-76
2021/12/22 07:08:21;;;;;;;32.73;15.03;;;;;;;-5.35;78.31;101560.78;8462282;34;20153;-76
2021/12/22 07:13:25;;;;;;;30.33;13.30;;;;;;;-5.39;78.06;101559.91;8462545;34;20543;-76
2021/12/22 07:18:31;;;;;;;59.77;17.10;;;;;;;-5.04;79.70;101554.78;8470481;34;20429;-77
2021/12/22 07:23:34;;;;;;;125.50;33.97;;;;;;;-4.54;78.49;101543.44;8464770;34;20208;-76
2021/12/22 07:28:38;;;;;;;55.60;21.73;;;;;;;-4.18;77.34;101554.78;8460089;33;20249;-75
2021/12/22 07:33:44;;;;;;;21.27;12.50;;;;;;;-4.16;75.52;101546.94;8463275;34;20461;-76
2021/12/22 07:38:53;;;;;;;17.97;10.60;;;;;;;-4.38;74.52;101538.22;8459994;34;20890;-76
2021/12/22 07:43:58;;;;;;;21.37;11.67;;;;;;;-4.94;75.38;101545.16;8461387;33;20906;-75
2021/12/22 07:49:01;;;;;;;25.50;11.93;;;;;;;-4.94;75.54;101542.53;8468670;34;20185;-75
2021/12/22 07:54:04;;;;;;;27.27;12.93;;;;;;;-5.01;75.91;101553.91;8467936;34;20235;-75
2021/12/22 07:59:09;;;;;;;23.23;12.73;;;;;;;-5.06;76.23;101555.63;8468606;34;20228;-75
2021/12/22 08:04:12;;;;;;;28.43;12.47;;;;;;;-5.02;76.28;101557.38;8470511;34;20755;-75
2021/12/22 08:09:15;;;;;;;22.73;10.67;;;;;;;-4.96;76.24;101554.78;8465368;34;20477;-75
2021/12/22 08:14:22;;;;;;;30.60;11.97;;;;;;;-4.75;76.66;101551.31;8486332;33;20447;-75
2021/12/22 08:19:25;;;;;;;25.53;11.47;;;;;;;-4.53;75.93;101555.69;8462441;33;20754;-75
2021/12/22 08:24:28;;;;;;;24.83;11.43;;;;;;;-4.39;75.57;101560.94;8461679;34;20369;-75
2021/12/22 08:29:33;;;;;;;22.43;11.70;;;;;;;-4.19;74.79;101553.06;8483630;33;20831;-76
2021/12/22 08:34:39;;;;;;;23.50;11.47;;;;;;;-4.09;74.04;101548.66;8465238;34;20420;-75
2021/12/22 08:39:42;;;;;;;23.87;11.93;;;;;;;-3.78;74.23;101548.59;8470009;34;20203;-75
2021/12/22 08:44:46;;;;;;;27.23;12.20;;;;;;;-3.31;73.60;101537.88;8495359;33;20661;-75
2021/12/22 08:49:50;;;;;;;27.53;12.70;;;;;;;-3.14;72.61;101527.25;8467616;33;20494;-75
2021/12/22 08:54:53;;;;;;;25.17;12.57;;;;;;;-3.11;71.97;101526.38;8462749;33;20224;-75
2021/12/22 08:59:58;;;;;;;32.07;14.13;;;;;;;-2.78;71.70;101526.13;8460633;33;20561;-75
2021/12/22 09:05:01;;;;;;;23.70;12.37;;;;;;;-2.59;70.73;101518.09;8466727;33;20148;-76
2021/12/22 09:10:05;;;;;;;26.13;13.00;;;;;;;-2.25;70.18;101518.66;8464792;34;20288;-75
2021/12/22 09:15:10;;;;;;;22.47;12.73;;;;;;;-1.99;69.54;101504.34;8466403;34;20568;-75
2021/12/22 09:20:13;;;;;;;25.33;13.07;;;;;;;-1.89;69.07;101492.84;8514231;28;20431;-77
2021/12/22 09:25:17;;;;;;;22.90;11.30;;;;;;;-1.81;67.94;101506.78;8488827;34;20916;-77
2021/12/22 09:30:22;;;;;;;23.37;12.10;;;;;;;-1.59;67.77;101512.66;8488169;34;20154;-78
2021/12/22 09:35:27;;;;;;;24.77;12.73;;;;;;;-1.43;67.62;101521.22;8485238;34;20537;-78
2021/12/22 09:40:31;;;;;;;18.80;10.53;;;;;;;-1.37;66.69;101529.06;8483239;34;20415;-77
2021/12/22 09:45:43;;;;;;;19.80;11.47;;;;;;;-1.23;67.14;101521.84;8487635;34;20440;-78
2021/12/22 09:50:53;;;;;;;23.37;12.60;;;;;;;-0.62;65.34;101517.38;8491995;34;20684;-77
2021/12/22 09:55:58;;;;;;;21.07;11.87;;;;;;;-0.33;64.85;101516.00;8465045;34;20156;-78
2021/12/22 10:01:04;;;;;;;22.30;11.93;;;;;;;-0.50;64.64;101508.38;8492555;34;20501;-79
2021/12/22 10:06:08;;;;;;;21.20;11.60;;;;;;;-0.74;65.69;101509.66;8496273;34;20380;-80
2021/12/22 10:11:13;;;;;;;22.30;11.83;;;;;;;-0.64;66.29;101505.97;8491396;34;20145;-81
2021/12/22 10:16:24;;;;;;;23.80;12.53;;;;;;;-0.12;64.81;101507.69;8484798;33;20466;-78
2021/12/22 10:21:27;;;;;;;27.27;14.63;;;;;;;-0.55;65.02;101497.03;8483408;34;20651;-79
2021/12/22 10:26:31;;;;;;;24.57;13.43;;;;;;;-0.94;66.07;101496.78;8484954;33;20431;-79
2021/12/22 10:31:43;;;;;;;19.20;11.27;;;;;;;-0.99;67.36;101494.25;8486960;34;20208;-77
2021/12/22 10:36:49;;;;;;;23.90;12.13;;;;;;;-1.00;67.60;101492.47;8485735;34;21045;-79
2021/12/22 10:41:54;;;;;;;24.20;12.23;;;;;;;-0.59;67.61;101487.44;8463181;34;20468;-79
2021/12/22 10:47:18;;;;;;;25.50;13.70;;;;;;;-0.45;66.50;101489.84;8482767;34;20164;-78
2021/12/22 10:52:27;;;;;;;20.80;12.07;;;;;;;0.12;64.98;101503.72;8479084;33;20199;-79
2021/12/22 10:57:40;;;;;;;21.80;12.57;;;;;;;0.70;63.25;101495.47;8481488;34;20421;-78
2021/12/22 11:02:50;;;;;;;19.53;12.10;;;;;;;0.77;62.86;101489.16;8462441;34;20729;-79
2021/12/22 11:07:54;;;;;;;21.07;13.17;;;;;;;0.90;62.07;101477.34;8489530;34;20409;-77
2021/12/22 11:13:03;;;;;;;28.17;13.33;;;;;;;1.43;62.38;101461.94;8488489;33;20149;-78
2021/12/22 11:18:10;;;;;;;28.90;13.60;;;;;;;1.71;61.42;101467.38;8488811;34;20153;-78
2021/12/22 11:23:13;;;;;;;23.05;12.70;;;;;;;2.47;59.72;101467.88;8497518;34;20199;-78
2021/12/22 11:28:20;;;;;;;21.67;11.90;;;;;;;2.56;57.72;101444.63;8505346;34;20424;-77
2021/12/22 11:33:30;;;;;;;27.48;12.43;;;;;;;3.01;57.07;101446.72;8474515;34;20393;-79
2021/12/22 11:38:34;;;;;;;30.02;14.38;;;;;;;3.27;57.33;101435.25;8508387;34;20240;-79
2021/12/22 11:43:39;;;;;;;23.85;13.05;;;;;;;4.01;56.00;101437.13;8475440;34;20152;-77
2021/12/22 11:48:44;;;;;;;20.70;12.20;;;;;;;4.22;54.75;101425.66;8487483;34;20152;-78
2021/12/22 11:53:52;;;;;;;25.02;12.50;;;;;;;3.57;55.77;101435.13;8487112;34;20146;-79
2021/12/22 11:58:55;;;;;;;21.73;12.70;;;;;;;3.45;56.36;101425.78;8485926;34;21066;-79
2021/12/22 12:04:16;;;;;;;25.52;12.85;;;;;;;3.40;55.90;101433.06;8484699;34;20431;-78
2021/12/22 12:09:23;;;;;;;24.73;12.93;;;;;;;2.42;58.50;101435.34;8485006;34;20423;-78
2021/12/22 12:15:00;;;;;;;25.60;13.13;;;;;;;2.25;59.81;101430.53;8485135;34;20150;-77
2021/12/22 12:25:37;;;;;;;28.67;14.00;;;;;;;2.95;59.85;101399.16;8486706;34;20146;-77
2021/12/22 12:30:46;;;;;;;47.15;21.45;;;;;;;3.66;57.67;101391.41;8484803;34;20141;-78
2021/12/22 12:36:06;;;;;;;36.22;18.20;;;;;;;3.51;57.86;101392.81;8485131;33;20157;-79
2021/12/22 12:41:25;;;;;;;32.50;17.55;;;;;;;3.32;58.31;101389.97;8455018;34;20214;-78
2021/12/22 12:46:50;;;;;;;33.80;17.38;;;;;;;3.10;57.47;101389.84;8478734;34;20428;-78
2021/12/22 12:51:59;;;;;;;27.63;15.23;;;;;;;2.53;58.88;101381.06;8480661;34;20419;-78
2021/12/22 12:57:25;;;;;;;31.40;15.38;;;;;;;2.51;60.23;101385.53;8487570;34;20138;-78
2021/12/22 13:02:31;;;;;;;26.63;14.13;;;;;;;2.13;60.19;101376.94;8501734;34;20149;-78
2021/12/22 13:07:36;;;;;;;25.92;13.38;;;;;;;1.81;61.69;101369.97;8503697;34;20454;-78
2021/12/22 13:13:01;;;;;;;25.52;13.32;;;;;;;1.87;61.62;101360.97;8471333;34;21103;-78
2021/12/22 13:18:07;;;;;;;25.40;13.65;;;;;;;1.75;61.67;101348.94;8489941;34;20430;-78
2021/12/22 13:23:15;;;;;;;24.70;13.27;;;;;;;1.44;63.04;101344.50;8485546;34;20155;-78
2021/12/22 13:28:21;;;;;;;26.88;14.30;;;;;;;1.25;63.62;101348.56;8485349;34;20451;-78
2021/12/22 13:33:31;;;;;;;24.65;14.48;;;;;;;0.88;64.97;101336.31;8483319;34;20204;-78
2021/12/22 13:38:53;;;;;;;26.40;14.40;;;;;;;0.78;65.14;101334.81;8462843;34;20145;-77
2021/12/22 13:44:01;;;;;;;29.27;13.65;;;;;;;0.83;65.86;101327.63;8475193;33;20126;-79
2021/12/22 13:49:13;;;;;;;25.75;14.07;;;;;;;0.74;66.14;101322.56;8504650;33;20130;-79
2021/12/22 13:54:58;;;;;;;28.50;14.82;;;;;;;0.23;67.08;101315.88;8510546;34;20486;-77
2021/12/22 14:00:05;;;;;;;23.40;13.27;;;;;;;0.05;68.49;101309.22;8507001;34;20450;-79
2021/12/22 14:05:23;;;;;;;25.87;13.60;;;;;;;-0.10;68.86;101309.56;8508382;33;20157;-79
2021/12/22 14:10:36;;;;;;;29.60;14.57;;;;;;;-0.15;68.94;101303.50;8506484;34;20469;-76
2021/12/22 14:15:45;;;;;;;25.30;12.97;;;;;;;-0.40;69.38;101306.69;8502828;34;20133;-76
2021/12/22 14:20:48;;;;;;;24.73;14.47;;;;;;;-0.56;70.21;101313.16;8498920;33;20529;-78
2021/12/22 14:26:06;;;;;;;24.83;13.07;;;;;;;-0.72;71.06;101304.69;8500284;34;20445;-79
2021/12/22 14:31:10;;;;;;;29.77;14.90;;;;;;;-0.85;71.67;101308.44;8497166;34;21020;-78
2021/12/22 14:36:13;;;;;;;24.63;13.77;;;;;;;-1.03;71.96;101301.75;8479685;34;20157;-78
2021/12/22 14:41:28;;;;;;;26.33;14.40;;;;;;;-1.29;72.94;101292.56;8481494;34;20146;-78
2021/12/22 14:46:34;;;;;;;29.50;15.33;;;;;;;-1.52;73.75;101292.06;8484082;34;20426;-78
2021/12/22 14:51:38;;;;;;;71.67;28.77;;;;;;;-1.67;74.13;101280.88;8459203;34;20680;-77
2021/12/22 14:56:46;;;;;;;59.30;25.20;;;;;;;-1.79;75.03;101286.34;8462284;34;20432;-78
2021/12/22 15:01:51;;;;;;;60.47;28.63;;;;;;;-1.93;75.05;101283.03;8488195;34;20467;-77
2021/12/22 15:06:55;;;;;;;40.80;20.47;;;;;;;-2.03;75.72;101282.28;8487693;34;20411;-78
2021/12/22 15:12:01;;;;;;;35.13;18.63;;;;;;;-2.07;75.88;101273.59;8484804;33;20142;-78
2021/12/22 15:17:04;;;;;;;30.73;16.37;;;;;;;-2.17;76.14;101261.44;8462989;34;20427;-77
2021/12/22 15:22:07;;;;;;;35.80;18.20;;;;;;;-2.27;76.24;101246.69;8454481;28;20434;-75
2021/12/22 15:27:12;;;;;;;40.27;20.40;;;;;;;-2.35;76.82;101243.28;8463462;34;20440;-74
2021/12/22 15:32:15;;;;;;;36.80;17.80;;;;;;;-2.41;76.62;101232.81;8465477;34;20516;-74
2021/12/22 15:37:18;;;;;;;43.83;22.60;;;;;;;-2.46;77.31;101229.41;8465889;34;20922;-74
2021/12/22 15:42:23;;;;;;;35.80;18.73;;;;;;;-2.52;77.18;101217.22;8469191;34;20577;-73
2021/12/22 15:47:26;;;;;;;33.97;18.10;;;;;;;-2.57;76.99;101204.13;8468667;34;20952;-74
2021/12/22 15:52:30;;;;;;;32.53;15.27;;;;;;;-2.65;77.28;101211.25;8481064;34;20523;-73
2021/12/22 15:57:34;;;;;;;37.33;16.77;;;;;;;-2.65;77.38;101216.50;8464944;34;20428;-74
2021/12/22 16:02:37;;;;;;;34.40;15.83;;;;;;;-2.68;77.64;101206.03;8463449;34;20610;-74
2021/12/22 16:07:40;;;;;;;34.97;17.07;;;;;;;-2.72;77.65;101196.41;8459408;34;20517;-73
2021/12/22 16:12:45;;;;;;;32.77;16.80;;;;;;;-2.70;77.58;101192.00;8462407;34;20504;-74
2021/12/22 16:17:49;;;;;;;29.40;17.53;;;;;;;-2.79;77.74;101187.75;8463875;34;20280;-74
2021/12/22 16:22:53;;;;;;;36.03;18.13;;;;;;;-2.84;77.84;101184.31;8472149;34;20427;-74
2021/12/22 16:27:58;;;;;;;33.20;17.43;;;;;;;-2.79;77.74;101189.50;8482903;34;20874;-73
2021/12/22 16:33:01;;;;;;;34.67;17.97;;;;;;;-2.84;77.58;101188.69;8469310;34;20675;-73
2021/12/22 16:38:04;;;;;;;51.57;22.07;;;;;;;-2.84;77.41;101191.31;8443692;34;20519;-74
2021/12/22 16:43:08;;;;;;;33.63;17.00;;;;;;;-2.89;76.95;101191.38;8466474;34;20620;-73
2021/12/22 16:48:11;;;;;;;37.93;17.73;;;;;;;-2.92;77.35;101190.56;8470644;34;21052;-73
2021/12/22 16:53:15;;;;;;;34.70;17.10;;;;;;;-2.99;77.89;101181.84;8473126;34;20472;-73
2021/12/22 16:58:20;;;;;;;34.27;16.97;;;;;;;-3.02;77.51;101181.88;8484510;34;20142;-74
2021/12/22 17:03:23;;;;;;;32.63;15.97;;;;;;;-3.03;77.23;101178.41;8485641;34;20248;-74
2021/12/22 17:08:26;;;;;;;35.53;18.37;;;;;;;-3.02;77.44;101181.88;8483908;34;20244;-74
2021/12/22 17:13:31;;;;;;;35.30;17.77;;;;;;;-3.05;77.74;101168.78;8475768;34;20582;-74
2021/12/22 17:18:35;;;;;;;32.87;17.87;;;;;;;-3.05;77.69;101169.66;8470841;34;20215;-74
2021/12/22 17:23:38;;;;;;;35.97;16.63;;;;;;;-3.09;77.76;101159.22;8475781;34;20307;-74
2021/12/22 17:28:42;;;;;;;38.17;18.33;;;;;;;-3.05;77.41;101148.63;8485986;34;20157;-74
2021/12/22 17:33:45;;;;;;;37.17;18.70;;;;;;;-3.05;77.94;101143.38;8484408;34;20416;-74
2021/12/22 17:38:48;;;;;;;40.37;18.97;;;;;;;-3.01;77.69;101141.59;8488550;34;20565;-75
2021/12/22 17:43:55;;;;;;;33.87;18.33;;;;;;;-2.99;77.63;101137.16;8489793;34;21038;-74
2021/12/22 17:48:58;;;;;;;38.17;18.63;;;;;;;-2.98;77.69;101141.53;8492178;34;20200;-74
2021/12/22 17:54:01;;;;;;;32.90;15.87;;;;;;;-2.96;77.65;101139.78;8467512;34;20184;-73
2021/12/22 17:59:05;;;;;;;37.67;17.97;;;;;;;-3.00;77.42;101132.81;8487707;34;20142;-74
2021/12/22 18:04:10;;;;;;;32.50;16.67;;;;;;;-3.00;77.55;101125.78;8483615;34;20590;-73
2021/12/22 18:09:13;;;;;;;31.27;17.80;;;;;;;-3.11;77.75;101116.31;8485016;34;20760;-73
2021/12/22 18:14:19;;;;;;;36.73;18.00;;;;;;;-3.07;77.55;101105.75;8489478;34;20413;-74
2021/12/22 18:19:22;;;;;;;36.00;17.70;;;;;;;-3.06;77.54;101110.09;8482676;34;20416;-73
2021/12/22 18:24:25;;;;;;;37.33;18.00;;;;;;;-3.05;77.44;101101.31;8481822;34;20411;-73
2021/12/22 18:29:30;;;;;;;37.60;17.00;;;;;;;-3.09;77.65;101098.75;8482812;34;20454;-73
2021/12/22 18:34:34;;;;;;;35.97;19.03;;;;;;;-3.08;77.33;101082.94;8487992;34;20165;-73
2021/12/22 18:39:45;;;;;;;42.63;22.57;;;;;;;-3.06;77.38;101072.44;8482532;34;20993;-74
2021/12/22 18:44:49;;;;;;;38.50;20.33;;;;;;;-3.09;76.97;101070.72;8472803;34;20149;-73
2021/12/22 18:49:52;;;;;;;39.73;19.53;;;;;;;-3.10;77.61;101053.22;8472551;34;20528;-74
2021/12/22 18:54:55;;;;;;;36.17;17.83;;;;;;;-3.14;77.53;101053.25;8481156;34;20451;-73
2021/12/22 18:59:59;;;;;;;39.10;18.17;;;;;;;-3.11;77.53;101054.09;8468175;34;20508;-73
2021/12/22 19:05:02;;;;;;;39.07;18.17;;;;;;;-3.05;77.20;101043.47;8472541;34;20440;-73
2021/12/22 19:10:08;;;;;;;37.27;18.73;;;;;;;-3.08;77.04;101050.53;8472319;34;20433;-73
2021/12/22 19:15:15;;;;;;;32.83;17.97;;;;;;;-3.04;76.86;101050.50;8470187;34;20451;-73
2021/12/22 19:20:18;;;;;;;34.17;17.23;;;;;;;-3.03;76.71;101046.97;8470874;34;20542;-73
2021/12/22 19:25:21;;;;;;;38.67;17.23;;;;;;;-3.06;76.52;101046.13;8459379;34;20206;-73
2021/12/22 19:30:26;;;;;;;34.30;18.83;;;;;;;-3.09;76.54;101039.16;8482748;34;20145;-73
2021/12/22 19:35:30;;;;;;;36.47;19.20;;;;;;;-3.13;76.45;101039.22;8471517;34;20841;-74
2021/12/22 19:40:33;;;;;;;35.10;18.30;;;;;;;-3.14;76.69;101037.50;8469689;34;20973;-74
2021/12/22 19:45:37;;;;;;;30.83;17.77;;;;;;;-3.12;76.33;101027.84;8466868;34;20142;-73
2021/12/22 19:50:41;;;;;;;35.60;18.90;;;;;;;-3.19;76.76;101020.00;8471086;34;20759;-73
2021/12/22 19:55:45;;;;;;;35.77;17.53;;;;;;;-3.18;76.49;101018.28;8472374;34;20463;-73
2021/12/22 20:00:50;;;;;;;36.43;17.70;;;;;;;-3.22;76.75;101014.81;8464995;34;20422;-74
2021/12/22 20:05:53;;;;;;;38.60;18.70;;;;;;;-3.19;76.41;100999.00;8466400;34;20207;-73
2021/12/22 20:10:56;;;;;;;31.10;15.80;;;;;;;-3.22;76.38;100990.28;8465166;34;20404;-73
2021/12/22 20:16:01;;;;;;;32.83;17.30;;;;;;;-3.20;76.07;100996.41;8469381;34;21005;-73
2021/12/22 20:21:05;;;;;;;33.97;14.70;;;;;;;-3.31;76.28;100972.03;8470033;34;20591;-73
2021/12/22 20:26:08;;;;;;;28.97;15.90;;;;;;;-3.31;75.99;100969.41;8481940;34;20550;-74
2021/12/22 20:31:13;;;;;;;28.57;16.23;;;;;;;-3.42;76.37;100973.06;8478134;34;20990;-73
2021/12/22 20:36:16;;;;;;;29.93;15.53;;;;;;;-3.39;76.12;100989.66;8446991;34;20142;-74
2021/12/22 20:41:20;;;;;;;27.80;14.70;;;;;;;-3.39;76.03;100958.16;8474247;34;20567;-73
2021/12/22 20:46:24;;;;;;;29.80;15.53;;;;;;;-3.53;76.37;100924.19;8469953;34;20240;-74
2021/12/22 20:51:27;;;;;;;30.03;15.07;;;;;;;-3.46;76.48;100937.19;8471480;34;20546;-75
2021/12/22 20:56:31;;;;;;;28.80;14.93;;;;;;;-3.39;76.34;100951.13;8471057;34;20529;-73
2021/12/22 21:01:35;;;;;;;35.90;16.60;;;;;;;-3.52;76.75;100895.25;8469658;34;20195;-74
2021/12/22 21:06:43;;;;;;;32.73;16.10;;;;;;;-3.36;76.09;100937.09;8471025;34;20146;-74
2021/12/22 21:11:46;;;;;;;25.07;14.43;;;;;;;-3.45;76.14;100903.94;8470774;34;20149;-74
2021/12/22 21:16:51;;;;;;;34.10;15.30;;;;;;;-3.44;76.11;100909.16;8479231;34;20149;-73
2021/12/22 21:21:54;;;;;;;31.20;17.33;;;;;;;-3.42;76.35;100912.63;8557866;27;20152;-80
2021/12/22 21:26:57;;;;;;;31.30;15.67;;;;;;;-3.45;76.19;100896.91;8555950;33;20168;-79
2021/12/22 21:32:01;;;;;;;33.47;15.53;;;;;;;-3.43;76.05;100907.38;8557450;33;20191;-81
2021/12/22 21:37:05;;;;;;;25.27;13.17;;;;;;;-3.52;76.29;100895.25;8562769;33;20908;-79
2021/12/22 21:42:12;;;;;;;27.97;14.57;;;;;;;-3.59;76.16;100887.47;8563905;33;20148;-80
2021/12/22 21:47:16;;;;;;;30.20;16.97;;;;;;;-3.58;76.14;100876.97;8562576;33;20156;-79
2021/12/22 21:52:28;;;;;;;31.17;15.60;;;;;;;-3.63;76.27;100868.28;8555807;33;20450;-79
2021/12/22 21:57:31;;;;;;;27.23;14.97;;;;;;;-3.63;76.12;100865.66;8554056;33;20594;-81
2021/12/22 22:02:36;;;;;;;34.33;16.07;;;;;;;-3.75;76.16;100864.09;8554231;33;20421;-80
2021/12/22 22:07:41;;;;;;;30.57;15.00;;;;;;;-3.71;76.12;100860.50;8542411;33;20231;-81
2021/12/22 22:12:44;;;;;;;32.40;15.50;;;;;;;-3.67;76.36;100851.72;8541216;33;20206;-81
2021/12/22 22:17:50;;;;;;;29.20;16.07;;;;;;;-3.57;76.38;100848.94;8549980;33;20838;-81
2021/12/22 22:22:53;;;;;;;30.20;15.77;;;;;;;-3.52;76.12;100845.34;8535414;33;20144;-79
2021/12/22 22:27:59;;;;;;;29.73;15.77;;;;;;;-3.44;76.14;100853.13;8532651;33;20572;-80
2021/12/22 22:33:04;;;;;;;33.10;17.20;;;;;;;-3.39;75.89;100853.91;8533458;33;20137;-81
2021/12/22 22:38:07;;;;;;;28.60;14.67;;;;;;;-3.25;75.70;100856.31;8537461;33;20986;-79
2021/12/22 22:43:10;;;;;;;26.23;15.17;;;;;;;-3.26;75.47;100858.09;8541859;33;20899;-78
2021/12/22 22:48:15;;;;;;;30.27;15.10;;;;;;;-3.14;75.34;100841.25;8553153;33;20451;-80
2021/12/22 22:53:18;;;;;;;29.70;14.90;;;;;;;-3.22;75.11;100814.22;8553942;33;20199;-78
2021/12/22 22:58:21;;;;;;;29.23;15.80;;;;;;;-3.30;75.38;100803.84;8551882;33;20144;-78
2021/12/22 23:03:26;;;;;;;32.90;16.93;;;;;;;-3.23;75.76;100802.84;8537885;33;20964;-79
2021/12/22 23:08:29;;;;;;;30.90;15.90;;;;;;;-3.19;75.35;100812.41;8539531;33;20470;-78
2021/12/22 23:13:33;;;;;;;27.87;14.53;;;;;;;-3.20;75.07;100805.41;8537382;33;20475;-78
2021/12/22 23:18:38;;;;;;;33.03;16.43;;;;;;;-3.27;75.60;100800.28;8541146;33;20153;-78
2021/12/22 23:23:41;;;;;;;34.13;17.03;;;;;;;-3.31;75.59;100788.97;8541435;33;20468;-78
2021/12/22 23:28:44;;;;;;;32.30;15.67;;;;;;;-3.21;75.29;100794.94;8542292;33;20621;-78